Time;durP1;ratioP1;P1;durP2;ratioP2;P2;SDS_P1;SDS_P2;PMS_P1;PMS_P2;Temp;Humidity;BMP_temperature;BMP_pressure;BME280_temperature;BME280_humidity;BME280_pressure;Samples;Min_cycle;Max_cycle;Signal;HPM_P1;HPM_P2
2022/07/14 00:00:53;;;;;;;2.25;0.80;;;;;;;16.09;88.50;99574.75;1694014;83;21031;-67
2022/07/14 00:03:24;;;;;;;1.25;0.70;;;;;;;16.09;88.42;99574.75;1707703;83;21063;-69
2022/07/14 00:05:55;;;;;;;2.70;0.80;;;;;;;16.07;88.17;99578.31;1700829;83;21060;-67
2022/07/14 00:08:31;;;;;;;0.80;0.80;;;;;;;16.07;88.37;99576.09;1706805;83;21432;-68
2022/07/14 00:11:01;;;;;;;2.95;1.00;;;;;;;16.07;88.32;99578.31;1656403;86;21067;-67
2022/07/14 00:13:31;;;;;;;3.02;0.80;;;;;;;16.06;87.71;99578.56;1684158;83;21516;-67
2022/07/14 00:16:02;;;;;;;2.55;0.80;;;;;;;16.06;87.35;99582.16;1655286;85;21095;-66
2022/07/14 00:18:32;;;;;;;1.50;0.95;;;;;;;16.07;87.58;99574.17;1707834;83;21473;-71
2022/07/14 00:21:01;;;;;;;3.27;0.90;;;;;;;16.07;87.51;99583.84;1640786;86;21057;-66
2022/07/14 00:23:32;;;;;;;1.02;0.75;;;;;;;16.10;87.47;99585.27;1702477;83;21499;-67
2022/07/14 00:26:03;;;;;;;2.40;0.70;;;;;;;16.12;87.46;99583.91;1702967;83;21452;-66
2022/07/14 00:28:34;;;;;;;1.00;0.80;;;;;;;16.12;87.61;99590.83;1654116;85;21102;-68
2022/07/14 00:31:10;;;;;;;2.83;0.90;;;;;;;16.11;87.58;99587.77;1702151;83;21043;-68
2022/07/14 00:33:41;;;;;;;1.25;0.70;;;;;;;16.13;87.79;99589.73;1646063;86;21469;-68
2022/07/14 00:36:11;;;;;;;1.10;0.70;;;;;;;16.13;87.87;99592.50;1707874;83;21051;-67
2022/07/14 00:38:41;;;;;;;1.92;0.60;;;;;;;16.13;87.81;99592.50;1707301;83;21068;-67
2022/07/14 00:41:13;;;;;;;2.90;0.78;;;;;;;16.12;87.38;99589.44;1644285;86;21052;-67
2022/07/14 00:43:43;;;;;;;1.52;0.80;;;;;;;16.11;87.36;99591.08;1634155;86;21072;-67
2022/07/14 00:46:14;;;;;;;1.52;0.68;;;;;;;16.11;87.47;99593.30;1640366;86;21036;-67
2022/07/14 00:48:44;;;;;;;0.93;0.60;;;;;;;16.11;87.53;99589.70;1600975;88;21047;-67
2022/07/14 00:51:13;;;;;;;2.95;1.10;;;;;;;16.10;87.46;99584.71;1650152;86;21170;-66
2022/07/14 00:53:53;;;;;;;2.15;0.70;;;;;;;16.09;87.36;99583.04;1639786;86;21526;-68
2022/07/14 00:56:25;;;;;;;0.82;0.82;;;;;;;16.09;87.28;99585.80;1641037;86;21205;-66
2022/07/14 00:58:55;;;;;;;4.37;0.85;;;;;;;16.08;87.27;99592.42;1652308;83;21516;-67
2022/07/14 01:01:25;;;;;;;0.88;0.60;;;;;;;16.07;87.05;99604.56;1634639;86;21064;-67
2022/07/14 01:03:55;;;;;;;0.70;0.70;;;;;;;16.05;87.07;99594.86;1634838;87;21511;-65
2022/07/14 01:06:26;;;;;;;2.85;0.60;;;;;;;16.05;86.99;99597.62;1618152;87;21067;-66
2022/07/14 01:08:57;;;;;;;2.35;0.80;;;;;;;16.03;87.02;99605.33;1652547;86;21122;-68
2022/07/14 01:11:28;;;;;;;3.47;0.60;;;;;;;16.00;86.81;99598.38;1659057;86;21011;-67
2022/07/14 01:14:02;;;;;;;2.85;0.95;;;;;;;16.00;86.92;99601.14;1644464;86;21103;-67
2022/07/14 01:16:32;;;;;;;2.98;0.80;;;;;;;16.02;87.09;99599.51;1657107;86;21079;-66
2022/07/14 01:19:02;;;;;;;1.30;0.60;;;;;;;15.99;86.48;99605.00;1659223;85;21495;-69
2022/07/14 01:21:32;;;;;;;2.60;0.70;;;;;;;15.97;86.21;99592.52;1636260;86;21486;-67
2022/07/14 01:24:03;;;;;;;0.75;0.70;;;;;;;15.96;86.15;99592.23;1661598;85;21060;-66
2022/07/14 01:26:33;;;;;;;2.22;0.80;;;;;;;15.93;86.07;99601.86;1635025;87;21051;-67
2022/07/14 01:29:06;;;;;;;1.10;0.70;;;;;;;15.92;85.92;99600.73;1674439;85;21075;-66
2022/07/14 01:31:38;;;;;;;1.17;0.80;;;;;;;15.94;85.76;99609.06;1657279;86;21435;-66
2022/07/14 01:34:08;;;;;;;3.90;0.70;;;;;;;15.95;85.84;99609.89;1662021;86;21044;-66
2022/07/14 01:36:39;;;;;;;1.47;0.90;;;;;;;15.94;85.94;99607.67;1658379;85;21052;-68
2022/07/14 01:39:12;;;;;;;0.65;0.65;;;;;;;15.93;85.90;99608.77;1654185;86;21055;-67
2022/07/14 01:41:41;;;;;;;0.88;0.70;;;;;;;15.94;85.79;99617.89;1643754;86;21046;-66
2022/07/14 01:44:12;;;;;;;1.22;0.80;;;;;;;15.93;85.55;99610.15;1654263;86;21067;-67
2022/07/14 01:46:42;;;;;;;1.80;0.72;;;;;;;15.90;85.42;99614.80;1645725;86;21080;-67
2022/07/14 01:49:12;;;;;;;3.12;0.65;;;;;;;15.88;85.39;99615.59;1670217;86;21550;-66
2022/07/14 01:51:42;;;;;;;2.67;0.82;;;;;;;15.86;85.39;99619.15;1630794;87;21035;-66
2022/07/14 01:54:13;;;;;;;2.25;0.70;;;;;;;15.87;85.32;99611.16;1645986;86;21497;-67
2022/07/14 01:56:45;;;;;;;1.22;0.90;;;;;;;15.87;85.38;99618.06;1657094;86;21067;-66
2022/07/14 01:59:17;;;;;;;1.32;0.70;;;;;;;15.88;85.57;99623.05;1647437;86;21127;-66
2022/07/14 02:01:46;;;;;;;2.08;0.85;;;;;;;15.87;85.55;99624.13;1651157;85;21076;-67
2022/07/14 02:04:18;;;;;;;2.62;0.70;;;;;;;15.87;85.66;99626.34;1652850;86;21051;-66
2022/07/14 02:06:51;;;;;;;0.90;0.72;;;;;;;15.90;85.56;99631.92;1651357;85;21112;-66
2022/07/14 02:12:36;;;;;;;1.95;1.00;;;;;;;15.84;85.21;99640.66;1550903;92;21148;-66
2022/07/14 02:15:07;;;;;;;2.05;0.78;;;;;;;15.80;85.23;99645.86;1553475;92;21123;-67
2022/07/14 02:17:37;;;;;;;1.40;0.70;;;;;;;15.79;85.21;99650.24;1581469;86;21083;-67
2022/07/14 02:20:10;;;;;;;0.75;0.75;;;;;;;15.75;85.18;99646.31;1641924;87;21017;-67
2022/07/14 02:22:39;;;;;;;2.60;1.00;;;;;;;15.72;85.32;99655.09;1640802;86;21056;-67
2022/07/14 02:25:10;;;;;;;1.87;0.70;;;;;;;15.72;85.36;99659.23;1627320;87;21053;-67
2022/07/14 02:27:43;;;;;;;1.87;0.80;;;;;;;15.71;85.40;99663.09;1553756;90;21577;-66
2022/07/14 02:30:15;;;;;;;2.30;0.80;;;;;;;15.71;85.44;99664.47;1624515;87;21103;-67
2022/07/14 02:32:45;;;;;;;1.12;0.90;;;;;;;15.69;85.38;99667.48;1625190;87;21102;-68
2022/07/14 02:35:16;;;;;;;1.40;0.80;;;;;;;15.66;85.53;99668.52;1566818;90;21442;-69
2022/07/14 02:37:46;;;;;;;1.95;0.80;;;;;;;15.67;85.61;99670.20;1624408;87;21583;-68
2022/07/14 02:40:16;;;;;;;1.20;0.90;;;;;;;15.67;85.58;99671.03;1614454;87;21491;-67
2022/07/14 02:42:47;;;;;;;1.95;0.80;;;;;;;15.67;85.59;99668.27;1563270;90;21085;-69
2022/07/14 02:45:18;;;;;;;1.00;0.82;;;;;;;15.65;85.56;99675.97;1642427;84;21040;-69
2022/07/14 02:47:49;;;;;;;2.33;0.82;;;;;;;15.65;85.72;99680.66;1626823;87;21542;-66
2022/07/14 02:50:18;;;;;;;1.42;0.70;;;;;;;15.65;85.74;99684.80;1661749;85;21526;-67
2022/07/14 02:52:49;;;;;;;1.10;0.90;;;;;;;15.68;85.84;99678.77;1644373;86;21060;-71
2022/07/14 02:55:22;;;;;;;1.35;0.70;;;;;;;15.67;85.71;99673.80;1644812;86;21027;-68
2022/07/14 02:57:52;;;;;;;1.57;1.00;;;;;;;15.65;85.74;99677.89;1652334;86;21058;-68
2022/07/14 03:00:23;;;;;;;2.10;1.00;;;;;;;15.65;85.77;99686.17;1609846;88;21143;-67
2022/07/14 03:02:54;;;;;;;1.40;0.90;;;;;;;15.67;85.77;99686.77;1635931;87;21529;-70
2022/07/14 03:05:24;;;;;;;1.12;1.02;;;;;;;15.66;85.72;99698.36;1653030;86;21055;-68
2022/07/14 03:07:55;;;;;;;1.42;0.88;;;;;;;15.66;85.45;99689.23;1649618;86;21536;-69
2022/07/14 03:10:24;;;;;;;2.67;1.00;;;;;;;15.62;85.55;99690.81;1657752;86;21114;-67
2022/07/14 03:12:55;;;;;;;2.65;0.80;;;;;;;15.62;85.57;99697.17;1641982;86;21134;-68
2022/07/14 03:15:25;;;;;;;1.98;0.90;;;;;;;15.61;85.55;99692.73;1622010;87;21083;-68
2022/07/14 03:17:55;;;;;;;0.80;0.80;;;;;;;15.63;85.59;99698.02;1627831;87;21081;-68
2022/07/14 03:20:25;;;;;;;4.15;1.00;;;;;;;15.62;85.64;99706.84;1662102;85;21043;-67
2022/07/14 03:22:56;;;;;;;2.02;0.90;;;;;;;15.60;85.48;99715.88;1638703;86;21088;-68
2022/07/14 03:25:28;;;;;;;1.80;1.02;;;;;;;15.62;85.51;99714.29;1646463;87;21075;-68
2022/07/14 03:28:00;;;;;;;1.27;0.90;;;;;;;15.64;85.70;99713.50;1641517;86;21171;-67
2022/07/14 03:30:31;;;;;;;0.90;0.90;;;;;;;15.65;85.50;99730.36;1654017;86;21464;-67
2022/07/14 03:33:02;;;;;;;1.90;0.80;;;;;;;15.65;85.40;99718.77;1667575;85;21103;-67
2022/07/14 03:35:32;;;;;;;1.95;0.93;;;;;;;15.66;85.53;99730.66;1648992;86;21040;-67
2022/07/14 03:38:02;;;;;;;0.72;0.70;;;;;;;15.68;85.34;99742.30;1654885;86;21048;-69
2022/07/14 03:40:34;;;;;;;1.40;0.80;;;;;;;15.68;85.01;99743.13;1648503;85;21036;-67
2022/07/14 03:43:05;;;;;;;2.12;0.90;;;;;;;15.65;84.67;99741.41;1644304;86;21063;-68
2022/07/14 03:45:39;;;;;;;1.77;1.00;;;;;;;15.62;84.82;99739.98;1638826;86;21103;-66
2022/07/14 03:48:10;;;;;;;4.62;0.80;;;;;;;15.62;84.90;99741.91;1634095;86;22291;-71
2022/07/14 03:50:43;;;;;;;1.50;0.70;;;;;;;15.63;84.99;99750.48;1633772;86;21079;-68
2022/07/14 03:53:14;;;;;;;3.77;1.10;;;;;;;15.66;84.69;99747.23;1638954;87;21107;-67
2022/07/14 03:55:45;;;;;;;1.85;1.00;;;;;;;15.67;84.48;99746.14;1617209;87;21072;-67
2022/07/14 03:58:18;;;;;;;1.05;0.80;;;;;;;15.67;84.41;99751.67;1616793;87;21115;-71
2022/07/14 04:00:48;;;;;;;1.60;1.07;;;;;;;15.66;84.06;99752.20;1699151;83;21529;-68
2022/07/14 04:03:19;;;;;;;1.32;0.90;;;;;;;15.64;83.77;99747.48;1643131;86;21590;-72
2022/07/14 04:05:50;;;;;;;2.08;0.90;;;;;;;15.62;83.75;99747.42;1690223;83;21028;-68
2022/07/14 04:08:21;;;;;;;1.45;0.75;;;;;;;15.60;83.91;99746.26;1645430;85;21085;-66
2022/07/14 04:10:53;;;;;;;3.00;0.90;;;;;;;15.59;83.75;99745.97;1696360;83;21036;-68
2022/07/14 04:13:23;;;;;;;3.22;0.90;;;;;;;15.59;83.83;99746.51;1695332;83;21019;-69
2022/07/14 04:15:54;;;;;;;1.52;0.98;;;;;;;15.63;83.84;99757.39;1690304;83;21508;-67
2022/07/14 04:18:24;;;;;;;1.47;0.75;;;;;;;15.67;83.93;99751.67;1656415;86;21117;-68
2022/07/14 04:20:55;;;;;;;3.17;1.07;;;;;;;15.69;83.50;99757.78;1708004;83;21074;-68
2022/07/14 04:23:26;;;;;;;5.42;1.10;;;;;;;15.71;83.67;99762.52;1705920;83;21043;-68
2022/07/14 04:25:57;;;;;;;3.00;1.02;;;;;;;15.74;83.45;99762.02;1634137;86;21027;-66
2022/07/14 04:28:28;;;;;;;1.67;0.90;;;;;;;15.77;83.22;99772.58;1706725;83;21095;-67
2022/07/14 04:30:57;;;;;;;1.75;1.02;;;;;;;15.79;82.87;99768.48;1708845;83;21436;-68
2022/07/14 04:33:26;;;;;;;1.95;1.00;;;;;;;15.81;82.73;99776.52;1672521;85;21008;-67
2022/07/14 04:35:56;;;;;;;3.33;1.07;;;;;;;15.84;82.56;99782.93;1702954;83;21095;-68
2022/07/14 04:38:26;;;;;;;3.95;1.10;;;;;;;15.87;82.62;99781.05;1701563;83;21546;-69
2022/07/14 04:41:00;;;;;;;2.35;1.20;;;;;;;15.92;82.34;99780.31;1669298;83;21545;-68
2022/07/14 04:43:31;;;;;;;1.67;1.10;;;;;;;15.96;82.26;99795.31;1696116;83;21035;-68
2022/07/14 04:46:03;;;;;;;1.72;1.10;;;;;;;16.00;82.41;99780.75;1708767;83;21047;-69
2022/07/14 04:52:01;;;;;;;1.55;1.10;;;;;;;16.05;81.83;99784.98;1695354;83;21031;-68
2022/07/14 04:53:57;;;;;;;1.27;1.17;;;;;;;16.06;81.39;99793.57;1679861;85;21119;-67
2022/07/14 04:56:35;;;;;;;1.55;1.30;;;;;;;16.09;81.54;99805.52;1700787;83;21059;-74
2022/07/14 04:59:10;;;;;;;2.80;1.27;;;;;;;16.16;81.45;99803.97;1699157;83;21547;-68
2022/07/14 05:01:42;;;;;;;3.17;1.00;;;;;;;16.23;80.86;99803.27;1638659;87;21083;-70
2022/07/14 05:04:12;;;;;;;2.17;1.20;;;;;;;16.28;80.42;99810.84;1652675;86;20996;-68
2022/07/14 05:06:46;;;;;;;2.52;1.50;;;;;;;16.32;80.23;99814.79;1653567;86;21079;-68
2022/07/14 05:09:18;;;;;;;1.37;1.27;;;;;;;16.40;80.30;99811.61;1653922;86;21079;-68
2022/07/14 05:11:51;;;;;;;3.60;1.10;;;;;;;16.60;79.69;99810.57;1598472;88;21071;-67
2022/07/14 05:14:21;;;;;;;2.60;1.50;;;;;;;16.80;77.98;99805.94;1624691;87;21251;-67
2022/07/14 05:16:53;;;;;;;2.02;1.25;;;;;;;16.91;77.63;99827.17;1534065;93;21096;-68
2022/07/14 05:19:26;;;;;;;1.40;1.20;;;;;;;17.05;76.75;99819.35;1577889;89;21087;-68
2022/07/14 05:21:55;;;;;;;1.40;1.27;;;;;;;17.27;76.70;99822.16;1577235;89;21035;-69
2022/07/14 05:24:26;;;;;;;2.15;1.17;;;;;;;17.54;75.94;99825.00;1592690;89;21122;-69
2022/07/14 05:26:58;;;;;;;7.00;1.30;;;;;;;17.77;74.44;99817.04;1579838;89;21046;-69
2022/07/14 05:29:29;;;;;;;2.20;1.20;;;;;;;17.92;73.82;99829.69;1599011;87;21167;-69
2022/07/14 05:32:00;;;;;;;2.98;1.50;;;;;;;18.07;72.82;99822.92;1608461;89;21059;-66
2022/07/14 05:34:44;;;;;;;1.85;1.20;;;;;;;18.27;71.48;99830.64;1651384;84;21110;-68
2022/07/14 05:37:17;;;;;;;1.75;1.10;;;;;;;18.42;70.85;99838.28;1696103;84;21072;-67
2022/07/14 05:39:49;;;;;;;2.45;1.50;;;;;;;18.60;70.56;99842.89;1618170;87;21132;-69
2022/07/14 05:42:22;;;;;;;2.10;1.10;;;;;;;18.77;69.30;99839.17;1626683;87;21099;-67
2022/07/14 05:44:53;;;;;;;5.20;1.52;;;;;;;18.88;68.57;99840.95;1657442;85;21096;-70
2022/07/14 05:47:23;;;;;;;4.62;1.40;;;;;;;18.90;68.10;99847.08;1662054;85;21473;-69
2022/07/14 05:49:55;;;;;;;4.75;1.15;;;;;;;19.02;68.52;99842.17;1642186;86;21072;-69
2022/07/14 05:52:24;;;;;;;3.33;1.27;;;;;;;19.31;68.03;99843.47;1638238;87;21105;-69
2022/07/14 05:54:56;;;;;;;2.83;1.17;;;;;;;19.60;67.46;99838.41;1638098;86;21468;-67
2022/07/14 05:57:27;;;;;;;2.95;1.55;;;;;;;19.90;65.58;99836.30;1631420;86;21098;-67
2022/07/14 05:59:57;;;;;;;2.80;1.60;;;;;;;20.09;64.11;99833.02;1654789;85;21075;-67
2022/07/14 06:02:28;;;;;;;5.15;1.32;;;;;;;20.23;63.13;99836.42;1686095;85;21067;-70
2022/07/14 06:04:58;;;;;;;3.90;1.50;;;;;;;20.23;62.33;99835.59;1675406;85;21448;-68
2022/07/14 06:07:28;;;;;;;2.70;1.42;;;;;;;20.28;63.84;99840.33;1659220;86;21035;-68
2022/07/14 06:10:01;;;;;;;4.33;1.27;;;;;;;20.46;62.04;99835.09;1661293;85;21500;-68
2022/07/14 06:12:33;;;;;;;1.70;1.40;;;;;;;20.65;61.32;99833.16;1690224;83;21099;-70
2022/07/14 06:15:07;;;;;;;3.12;1.27;;;;;;;20.83;61.38;99836.81;1651766;85;21035;-68
2022/07/14 06:17:38;;;;;;;3.75;1.22;;;;;;;21.11;60.27;99840.96;1676179;85;21074;-68
2022/07/14 06:20:09;;;;;;;4.03;1.12;;;;;;;21.42;59.54;99838.98;1663210;85;21043;-69
2022/07/14 06:22:42;;;;;;;4.17;1.30;;;;;;;21.68;58.52;99843.94;1642587;85;21071;-68
2022/07/14 06:25:12;;;;;;;2.47;1.30;;;;;;;21.87;58.34;99832.98;1648236;85;21059;-69
2022/07/14 06:27:42;;;;;;;3.25;1.20;;;;;;;22.08;55.99;99838.20;1676463;85;21085;-67
2022/07/14 06:30:13;;;;;;;8.28;1.60;;;;;;;22.20;56.17;99835.66;1651918;85;21088;-68
2022/07/14 06:32:44;;;;;;;2.72;1.25;;;;;;;22.37;56.45;99845.31;1685407;83;21047;-68
2022/07/14 06:35:16;;;;;;;1.72;1.10;;;;;;;22.50;54.33;99845.23;1695310;83;21030;-72
2022/07/14 06:37:46;;;;;;;2.40;1.20;;;;;;;22.56;54.69;99849.66;1707017;83;21078;-69
2022/07/14 06:40:16;;;;;;;1.40;1.00;;;;;;;22.46;53.74;99842.74;1708316;83;21043;-72
2022/07/14 06:42:48;;;;;;;4.17;2.95;;;;;;;22.41;54.88;99842.78;1708285;83;21015;-68
2022/07/14 06:45:31;;;;;;;3.62;1.55;;;;;;;22.59;54.38;99846.84;1693150;83;21063;-68
2022/07/14 06:48:01;;;;;;;5.72;1.50;;;;;;;22.78;53.84;99849.23;1711244;83;21007;-68
2022/07/14 06:50:32;;;;;;;1.20;1.10;;;;;;;22.99;53.03;99843.77;1653832;86;21103;-68
2022/07/14 06:53:02;;;;;;;4.90;1.57;;;;;;;23.17;52.53;99851.98;1699057;83;21051;-69
2022/07/14 06:55:31;;;;;;;3.27;1.10;;;;;;;23.32;51.43;99846.23;1692987;83;21103;-71
2022/07/14 06:58:02;;;;;;;2.52;1.30;;;;;;;23.46;51.28;99851.16;1649496;86;21124;-69
2022/07/14 07:00:31;;;;;;;4.58;1.77;;;;;;;23.59;50.38;99847.13;1707670;83;21083;-69
2022/07/14 07:03:02;;;;;;;1.67;1.00;;;;;;;23.62;50.17;99842.90;1645083;86;21068;-68
2022/07/14 07:08:20;;;;;;;2.83;1.20;;;;;;;23.81;49.67;99848.55;1638179;87;21073;-68
2022/07/14 07:10:50;;;;;;;2.12;0.80;;;;;;;23.88;49.67;99850.41;1649536;86;21087;-68
2022/07/14 07:13:22;;;;;;;3.50;1.22;;;;;;;24.04;48.64;99856.08;1650631;87;21557;-68
2022/07/14 07:15:56;;;;;;;2.45;1.32;;;;;;;24.15;48.12;99847.01;1648942;86;21448;-75
2022/07/14 07:18:26;;;;;;;3.77;1.40;;;;;;;24.22;48.63;99851.67;1649088;86;21117;-68
2022/07/14 07:20:57;;;;;;;4.75;1.60;;;;;;;24.37;47.62;99847.28;1653632;86;21063;-67
2022/07/14 07:23:27;;;;;;;2.52;1.20;;;;;;;24.51;47.34;99845.95;1655035;86;21103;-69
2022/07/14 07:25:57;;;;;;;2.83;1.30;;;;;;;24.66;47.46;99851.31;1653184;86;21063;-68
2022/07/14 07:28:26;;;;;;;2.67;1.12;;;;;;;24.82;46.12;99849.95;1655209;86;21083;-69
2022/07/14 07:30:59;;;;;;;1.65;1.07;;;;;;;24.95;45.82;99846.38;1642470;86;21119;-69
2022/07/14 07:33:29;;;;;;;5.05;1.80;;;;;;;25.00;46.13;99852.49;1644142;86;21037;-68
2022/07/14 07:36:00;;;;;;;2.80;1.10;;;;;;;25.08;45.77;99862.17;1653600;86;21060;-67
2022/07/14 07:38:32;;;;;;;4.62;1.27;;;;;;;25.08;45.14;99852.36;1654980;86;21162;-69
2022/07/14 07:41:02;;;;;;;5.60;1.70;;;;;;;25.15;45.06;99847.18;1649442;86;21119;-70
2022/07/14 07:43:34;;;;;;;5.45;1.10;;;;;;;25.28;45.24;99846.38;1648833;86;21048;-69
2022/07/14 07:46:05;;;;;;;4.92;1.40;;;;;;;25.44;44.75;99846.38;1650030;86;21541;-69
2022/07/14 07:48:35;;;;;;;2.40;1.10;;;;;;;25.46;44.51;99842.70;1648555;86;21526;-69
2022/07/14 07:51:06;;;;;;;1.92;1.00;;;;;;;25.24;44.16;99851.77;1660790;86;21087;-68
2022/07/14 07:53:37;;;;;;;5.00;1.25;;;;;;;24.97;45.03;99843.27;1640149;86;21094;-72
2022/07/14 07:56:07;;;;;;;1.95;0.98;;;;;;;24.96;45.71;99840.20;1657275;85;21087;-72
2022/07/14 07:58:37;;;;;;;3.40;1.10;;;;;;;25.13;44.92;99841.88;1630503;88;21060;-71
2022/07/14 08:01:09;;;;;;;2.27;1.00;;;;;;;25.17;45.18;99851.91;1663346;85;21040;-71
2022/07/14 08:03:46;;;;;;;6.83;1.95;;;;;;;25.17;44.12;99840.70;1665836;85;21060;-72
2022/07/14 08:06:19;;;;;;;2.35;1.20;;;;;;;25.22;44.93;99847.61;1701960;83;21497;-71
2022/07/14 08:08:51;;;;;;;2.35;1.20;;;;;;;25.42;44.68;99847.84;1699812;83;21203;-73
2022/07/14 08:11:29;;;;;;;2.85;1.40;;;;;;;25.46;44.52;99851.11;1672364;85;21071;-79
2022/07/14 08:13:59;;;;;;;4.20;1.30;;;;;;;25.49;45.13;99845.45;1702400;83;21102;-80
2022/07/14 08:16:30;;;;;;;2.83;1.50;;;;;;;25.49;45.08;99844.05;1699836;83;21043;-77
2022/07/14 08:18:59;;;;;;;2.90;1.15;;;;;;;25.33;45.05;99847.69;1645060;85;21119;-78
2022/07/14 08:21:29;;;;;;;3.05;1.20;;;;;;;25.14;44.15;99849.16;1711863;83;21052;-77
2022/07/14 08:23:59;;;;;;;3.30;1.00;;;;;;;24.84;45.30;99851.05;1644832;86;21556;-78
2022/07/14 08:26:29;;;;;;;4.33;1.70;;;;;;;24.69;45.33;99849.30;1701227;83;21050;-76
2022/07/14 08:29:00;;;;;;;5.97;1.45;;;;;;;24.46;46.25;99841.83;1656316;86;21035;-77
2022/07/14 08:31:29;;;;;;;3.85;1.30;;;;;;;24.26;47.15;99854.13;1711340;83;21072;-74
2022/07/14 08:33:59;;;;;;;4.50;1.70;;;;;;;24.13;48.13;99854.88;1701526;83;21110;-75
2022/07/14 08:36:28;;;;;;;2.95;1.40;;;;;;;24.02;48.43;99848.55;1666787;85;21047;-74
2022/07/14 08:38:57;;;;;;;1.60;1.20;;;;;;;23.96;48.51;99856.74;1701467;83;21044;-79
2022/07/14 08:41:26;;;;;;;2.92;1.60;;;;;;;23.97;49.14;99855.05;1701470;83;21095;-76
2022/07/14 08:43:56;;;;;;;2.80;1.37;;;;;;;24.14;48.90;99850.38;1701521;83;21069;-72
2022/07/14 08:46:25;;;;;;;2.50;1.30;;;;;;;24.18;48.09;99852.84;1695828;83;21032;-78
2022/07/14 08:48:55;;;;;;;4.12;1.35;;;;;;;24.08;48.71;99851.58;1707195;82;21083;-80
2022/07/14 08:51:26;;;;;;;1.60;1.10;;;;;;;24.12;48.84;99856.84;1694964;83;21580;-80
2022/07/14 08:53:55;;;;;;;2.02;1.15;;;;;;;24.21;48.87;99856.44;1704789;83;21097;-78
2022/07/14 08:56:26;;;;;;;2.22;1.30;;;;;;;24.39;49.12;99862.38;1651472;86;21072;-78
2022/07/14 08:58:56;;;;;;;3.40;1.30;;;;;;;24.57;48.24;99862.38;1697246;83;21655;-78
2022/07/14 09:01:27;;;;;;;2.50;1.27;;;;;;;24.58;47.51;99862.64;1684929;83;21531;-77
2022/07/14 09:03:59;;;;;;;2.87;1.52;;;;;;;24.54;47.43;99852.34;1686766;85;21028;-77
2022/07/14 09:06:51;;;;;;;2.62;1.27;;;;;;;24.56;48.06;99856.50;1663333;84;21102;-81
2022/07/14 09:09:27;;;;;;;2.33;1.60;;;;;;;24.66;47.45;99844.30;1665765;85;21058;-80
2022/07/14 09:12:06;;;;;;;2.80;1.10;;;;;;;24.72;47.60;99847.89;1655355;86;21079;-75
2022/07/14 09:17:29;;;;;;;3.25;1.20;;;;;;;24.81;47.30;99847.46;1675847;85;21060;-76
2022/07/14 09:20:11;;;;;;;1.55;1.20;;;;;;;24.90;47.72;99849.83;1670844;85;21124;-78
2022/07/14 09:22:43;;;;;;;3.02;1.00;;;;;;;24.98;46.52;99841.33;1670142;85;21044;-77
2022/07/14 09:25:17;;;;;;;4.95;1.42;;;;;;;24.93;46.89;99848.65;1675770;85;21083;-80
2022/07/14 09:27:47;;;;;;;2.87;1.45;;;;;;;24.85;45.83;99854.12;1681914;85;21071;-79
2022/07/14 09:30:17;;;;;;;2.58;1.50;;;;;;;24.61;46.31;99849.99;1676351;85;21083;-77
2022/07/14 09:32:58;;;;;;;3.85;1.35;;;;;;;24.36;46.82;99860.19;1685115;84;21075;-79
2022/07/14 09:35:38;;;;;;;2.87;1.50;;;;;;;24.26;47.80;99858.33;1675765;85;21011;-78
2022/07/14 09:38:22;;;;;;;6.60;1.57;;;;;;;24.27;48.32;99855.83;1675017;85;21079;-77
2022/07/14 09:40:55;;;;;;;2.98;1.47;;;;;;;24.29;48.12;99866.98;1676496;85;21015;-78
2022/07/14 09:43:25;;;;;;;3.15;1.90;;;;;;;24.20;47.96;99870.16;1671393;85;21459;-77
2022/07/14 09:45:58;;;;;;;3.02;2.17;;;;;;;24.03;47.58;99871.20;1680075;85;21075;-77
2022/07/14 09:48:29;;;;;;;1.98;1.40;;;;;;;23.86;48.16;99876.46;1663315;85;22096;-77
2022/07/14 09:51:05;;;;;;;3.60;1.70;;;;;;;23.73;48.71;99869.63;1686140;85;21000;-80
2022/07/14 09:53:36;;;;;;;3.02;1.70;;;;;;;23.64;49.19;99862.45;1666534;84;21075;-80
2022/07/14 09:56:10;;;;;;;3.60;1.70;;;;;;;23.62;49.16;99855.48;1686330;85;21102;-79
2022/07/14 09:58:51;;;;;;;2.87;1.55;;;;;;;23.66;50.04;99852.36;1677587;84;21495;-81
2022/07/14 10:01:23;;;;;;;3.15;1.70;;;;;;;23.73;49.28;99873.81;1679829;84;21132;-80
2022/07/14 10:03:55;;;;;;;2.67;1.67;;;;;;;23.74;48.41;99860.09;1694816;84;21071;-80
2022/07/14 10:06:27;;;;;;;2.25;1.70;;;;;;;23.65;49.24;99864.11;1648845;86;21051;-77
2022/07/14 10:08:58;;;;;;;3.62;1.72;;;;;;;23.67;49.38;99863.25;1658329;85;21087;-78
2022/07/14 10:11:31;;;;;;;4.83;2.00;;;;;;;23.70;48.85;99862.66;1643074;86;21079;-79
2022/07/14 10:14:01;;;;;;;4.60;2.22;;;;;;;23.72;49.36;99858.16;1649094;86;21088;-76
2022/07/14 10:16:34;;;;;;;4.05;2.05;;;;;;;23.77;49.35;99865.09;1645700;86;21571;-74
2022/07/14 10:19:05;;;;;;;2.77;1.90;;;;;;;23.83;49.54;99861.10;1639612;87;21103;-73
2022/07/14 10:21:38;;;;;;;2.00;1.80;;;;;;;23.96;49.75;99863.74;1666982;85;21065;-73
2022/07/14 10:24:09;;;;;;;3.95;2.25;;;;;;;24.12;49.34;99853.20;1650631;86;21569;-69
2022/07/14 10:26:40;;;;;;;2.25;1.80;;;;;;;24.20;48.63;99863.16;1659296;85;21080;-71
2022/07/14 10:29:14;;;;;;;3.55;1.80;;;;;;;24.16;48.04;99861.27;1643003;87;21060;-73
2022/07/14 10:32:09;;;;;;;3.00;1.62;;;;;;;24.13;48.49;99873.06;1618299;87;21103;-67
2022/07/14 10:35:03;;;;;;;2.87;2.10;;;;;;;24.16;48.79;99880.86;1643259;87;21091;-75
2022/07/14 10:37:54;;;;;;;4.30;2.17;;;;;;;24.17;49.25;99865.17;1645120;87;21047;-73
2022/07/14 10:40:37;;;;;;;2.30;2.08;;;;;;;24.22;49.76;99859.50;1658143;86;21075;-71
2022/07/14 10:43:13;;;;;;;2.35;2.05;;;;;;;24.31;49.41;99859.12;1645556;87;21051;-74
2022/07/14 10:45:53;;;;;;;4.95;2.27;;;;;;;24.38;48.67;99860.71;1660026;85;21092;-73
2022/07/14 10:48:30;;;;;;;3.27;2.12;;;;;;;24.43;48.03;99867.07;1647721;86;21161;-73
2022/07/14 10:51:21;;;;;;;3.25;1.98;;;;;;;24.49;47.76;99861.66;1647853;86;21056;-71
2022/07/14 10:54:12;;;;;;;4.75;1.90;;;;;;;24.54;47.67;99862.15;1646171;86;21082;-71
2022/07/14 10:56:45;;;;;;;2.80;1.80;;;;;;;24.55;47.37;99859.05;1668835;85;21055;-71
2022/07/14 10:59:30;;;;;;;2.40;2.08;;;;;;;24.58;46.54;99856.20;1646573;86;21473;-73
2022/07/14 11:02:18;;;;;;;3.40;1.90;;;;;;;24.58;46.63;99852.83;1647880;86;21106;-71
2022/07/14 11:05:07;;;;;;;2.85;1.70;;;;;;;24.59;46.68;99846.66;1666583;85;21064;-70
2022/07/14 11:07:43;;;;;;;5.28;1.90;;;;;;;24.59;46.58;99859.27;1707165;83;21020;-71
2022/07/14 11:10:27;;;;;;;3.30;1.87;;;;;;;24.58;46.04;99848.63;1661480;85;21064;-72
2022/07/14 11:13:07;;;;;;;4.85;3.45;;;;;;;24.53;46.73;99851.52;1697934;83;21087;-64
2022/07/14 11:15:48;;;;;;;5.08;3.75;;;;;;;24.58;47.24;99856.20;1701784;83;21031;-68
2022/07/14 11:18:32;;;;;;;3.33;2.15;;;;;;;24.72;47.10;99855.73;1714022;83;21568;-70
2022/07/14 11:21:14;;;;;;;2.37;1.90;;;;;;;24.76;46.43;99854.55;1699847;83;21028;-68
2022/07/14 11:23:51;;;;;;;1.98;1.60;;;;;;;24.69;46.14;99864.71;1694890;83;21039;-63
2022/07/14 11:26:42;;;;;;;3.52;1.80;;;;;;;24.62;46.29;99856.69;1665929;85;21103;-70
2022/07/14 11:29:14;;;;;;;3.62;1.67;;;;;;;24.54;45.95;99862.98;1697929;83;21046;-66
2022/07/14 11:31:52;;;;;;;2.72;2.00;;;;;;;24.45;46.25;99861.17;1701663;83;21485;-69
2022/07/14 11:37:19;;;;;;;3.27;1.80;;;;;;;24.39;46.52;99855.38;1696246;83;21340;-67
2022/07/14 11:39:53;;;;;;;4.97;2.10;;;;;;;24.34;46.27;99853.48;1699176;83;21031;-67
2022/07/14 11:42:24;;;;;;;3.95;1.72;;;;;;;24.38;46.09;99862.95;1696715;83;21079;-67
2022/07/14 11:44:54;;;;;;;4.58;1.90;;;;;;;24.49;46.44;99849.05;1695389;83;21039;-66
2022/07/14 11:47:31;;;;;;;5.25;1.85;;;;;;;24.58;46.10;99845.00;1695546;83;21063;-67
2022/07/14 11:50:05;;;;;;;2.85;1.60;;;;;;;24.64;46.55;99850.22;1689750;83;21076;-69
2022/07/14 11:52:40;;;;;;;4.62;1.90;;;;;;;24.68;46.40;99855.21;1714518;83;21059;-68
2022/07/14 11:55:17;;;;;;;2.15;1.70;;;;;;;24.67;45.75;99855.78;1711285;83;21452;-69
2022/07/14 11:57:51;;;;;;;2.10;1.77;;;;;;;24.65;45.99;99856.66;1707082;83;21090;-69
2022/07/14 12:00:22;;;;;;;2.92;1.90;;;;;;;24.62;45.92;99844.09;1707473;83;21024;-71
2022/07/14 12:02:53;;;;;;;3.00;1.82;;;;;;;24.60;46.23;99839.36;1715601;83;21075;-71
2022/07/14 12:05:25;;;;;;;2.33;1.82;;;;;;;24.60;45.99;99835.72;1701777;83;21055;-67
2022/07/14 12:07:55;;;;;;;3.17;1.75;;;;;;;24.59;46.42;99831.26;1656941;85;21067;-65
2022/07/14 12:10:39;;;;;;;2.47;1.92;;;;;;;24.59;46.13;99839.66;1713243;83;21114;-66
2022/07/14 12:13:10;;;;;;;2.85;1.80;;;;;;;24.58;46.17;99836.59;1636115;86;21065;-65